Gerald R. Ford International Airport
KGRR : now visible

Airfield :











YOU CAN JOIN US ON...

 
LOGIN :

Register | Disclaimer

   EN    FR    IT 

 









Legend :    VFR   Marginal VFR   IFR   Intensive IFR   Very Intensive IFR
Visi :
Ceiling :
>= 8 km
>= 3000ft
5 to 8 km
1000 to 3000 ft
1500m to 5 km
500 to 1000 ft
800 to 1500m
200 to 500 ft
< 800m
< 200 ft
Symbols :   Thunderstorms  Fog  Heavy snow  Heavy precipitations  Wind > 20 kt






- Airport Elevation : 794 ft
- IATA code : GRR


KGRR - Gerald R. Ford International

CURRENT METAR :
  • 200253Z 26009KT 10SM OVC080 08/M01 A3001 RMK AO2 SLP167 T00781011 53001

EXPIRED METARs :
  • 200153Z 25010KT 10SM BKN080 08/M02 A3001 RMK AO2 SLP166 T00781017
  • 200053Z 26013KT 10SM FEW080 SCT200 08/M03 A3000 RMK AO2 SLP164 T00831028
  • 192353Z 26012G24KT 10SM FEW055 FEW140 SCT200 09/M04 A3001 RMK AO2 PK WND 25029/2317 SLP166 T00941039 10106 20083 56005
  • 192253Z 26014G22KT 10SM FEW060 FEW200 10/M04 A3001 RMK AO2 PK WND 28026/2212 SLP166 T01001039

TAF KGRR
Valid from the 20 at 00:00 until the 21 at 00:00 UTC


192330Z 2000/2024 26014G22KT P6SM FEW060 FEW200
FM200100 27011KT P6SM SCT060
FM201300 28015G22KT P6SM BKN050
FM202300 27013KT P6SM BKN100
KZAU FIR / North America



MET'MAP, your aeronautical weather chart ! - Copyright ORBIFLY December 2007 - Disclaimer

ORBIFLY MET'MAP TEAM :

Programming & Development : Alexandra Zaïnal
Original concept : Baudouin d'Aumeries
Technical & hardware support : Manuel Goepfert
Assistance : Marc-Olivier Méhu




SOURCES & CREDITS :

   NOAA       Earth
Advisory